Time;durP1;ratioP1;P1;durP2;ratioP2;P2;SDS_P1;SDS_P2;PMS_P1;PMS_P2;Temp;Humidity;BMP_temperature;BMP_pressure;BME280_temperature;BME280_humidity;BME280_pressure;Samples;Min_cycle;Max_cycle;Signal;HPM_P1;HPM_P2
2022/03/17 00:02:03;;;;;;;32.20;22.90;;;;;;;9.44;82.19;101860.34;5001530;28;20030;-68
2022/03/17 00:04:28;;;;;;;33.15;23.27;;;;;;;9.40;82.28;101850.72;5002857;28;20037;-68
2022/03/17 00:06:54;;;;;;;32.30;23.05;;;;;;;9.36;82.89;101850.81;5001476;28;21075;-67
2022/03/17 00:09:19;;;;;;;29.55;22.67;;;;;;;9.32;82.92;101846.50;4999207;28;20048;-67
2022/03/17 00:11:45;;;;;;;32.47;23.90;;;;;;;9.31;82.82;101841.28;5001713;28;20046;-68
2022/03/17 00:14:10;;;;;;;32.40;23.95;;;;;;;9.28;83.25;101836.94;5001144;28;20038;-67
2022/03/17 00:16:55;;;;;;;33.70;23.45;;;;;;;9.25;84.02;101831.69;4992485;28;20109;-67
2022/03/17 00:19:20;;;;;;;34.40;24.05;;;;;;;9.22;84.28;101831.78;5006275;28;21351;-68
2022/03/17 00:21:46;;;;;;;35.67;22.75;;;;;;;9.20;84.17;101829.19;5005486;28;21464;-68
2022/03/17 00:24:11;;;;;;;33.95;23.23;;;;;;;9.19;84.39;101826.56;5003499;28;20025;-68
2022/03/17 00:26:37;;;;;;;34.08;24.00;;;;;;;9.18;84.32;101823.06;5005976;28;20068;-67
2022/03/17 00:29:07;;;;;;;34.25;23.52;;;;;;;9.17;84.77;101823.09;4986927;28;20045;-68
2022/03/17 00:31:33;;;;;;;33.85;23.83;;;;;;;9.14;85.03;101817.91;5005237;28;20140;-68
2022/03/17 00:33:58;;;;;;;31.85;23.70;;;;;;;9.16;84.36;101824.00;5004654;28;20040;-68
2022/03/17 00:36:24;;;;;;;34.13;23.67;;;;;;;9.14;85.36;101816.09;5006370;28;20035;-67
2022/03/17 00:38:49;;;;;;;32.90;23.83;;;;;;;9.14;85.30;101807.34;5003749;28;20439;-68
2022/03/17 00:41:14;;;;;;;31.25;22.63;;;;;;;9.16;85.30;101801.06;4988309;28;20473;-68
2022/03/17 00:43:40;;;;;;;36.72;24.05;;;;;;;9.18;85.41;101808.97;4988794;28;20370;-67
2022/03/17 00:46:06;;;;;;;36.80;24.10;;;;;;;9.19;85.36;101803.66;5005500;28;20916;-67
2022/03/17 00:48:31;;;;;;;35.63;25.10;;;;;;;9.19;85.61;101802.78;5006144;28;20064;-68
2022/03/17 00:50:57;;;;;;;34.30;23.80;;;;;;;9.18;85.27;101801.03;4988237;28;20065;-68
2022/03/17 00:53:22;;;;;;;33.13;24.02;;;;;;;9.15;85.65;101799.34;5004407;28;20033;-67
2022/03/17 00:55:49;;;;;;;33.55;24.58;;;;;;;9.15;85.75;101796.69;5005914;28;20376;-68
2022/03/17 00:58:14;;;;;;;32.47;24.77;;;;;;;9.14;85.59;101796.75;5005908;28;20603;-67
2022/03/17 01:00:40;;;;;;;38.42;26.42;;;;;;;9.14;85.69;101802.03;5004966;28;20045;-68
2022/03/17 01:03:06;;;;;;;35.28;24.73;;;;;;;9.13;86.47;101800.28;4984773;28;20031;-68
2022/03/17 01:05:31;;;;;;;34.13;25.30;;;;;;;9.12;86.07;101803.84;4987794;28;20072;-67
2022/03/17 01:07:57;;;;;;;33.20;24.25;;;;;;;9.09;86.30;101789.81;5003175;28;20563;-67
2022/03/17 01:10:23;;;;;;;34.47;24.98;;;;;;;9.09;85.95;101787.16;5002317;28;20065;-68
2022/03/17 01:12:50;;;;;;;33.03;23.80;;;;;;;9.10;86.32;101794.19;4988795;28;20963;-67
2022/03/17 01:15:17;;;;;;;35.63;25.25;;;;;;;9.09;86.48;101795.09;5005112;28;20033;-68
2022/03/17 01:17:43;;;;;;;35.30;25.13;;;;;;;9.09;86.33;101796.84;4986382;28;20033;-68
2022/03/17 01:20:10;;;;;;;34.40;25.88;;;;;;;9.10;86.29;101791.53;4985235;28;20043;-67
2022/03/17 01:22:36;;;;;;;35.10;25.05;;;;;;;9.13;86.53;101795.00;5003817;28;20026;-68
2022/03/17 01:25:03;;;;;;;34.70;25.80;;;;;;;9.14;86.52;101792.34;5003139;28;20034;-68
2022/03/17 01:27:29;;;;;;;34.70;23.98;;;;;;;9.14;86.79;101780.91;5004607;28;20494;-68
2022/03/17 01:29:55;;;;;;;32.85;25.55;;;;;;;9.17;86.89;101783.47;5005236;28;20041;-65
2022/03/17 01:32:21;;;;;;;36.50;25.95;;;;;;;9.15;86.85;101783.50;5004340;28;20041;-67
2022/03/17 01:34:47;;;;;;;35.42;26.92;;;;;;;9.15;86.99;101785.28;4986285;28;20033;-68
2022/03/17 01:37:12;;;;;;;37.92;25.65;;;;;;;9.13;87.72;101784.44;5004182;28;20037;-67
2022/03/17 01:39:38;;;;;;;39.97;27.35;;;;;;;9.08;87.83;101788.06;5001157;28;20470;-67
2022/03/17 01:42:06;;;;;;;39.55;28.20;;;;;;;9.04;88.02;101781.13;4986142;28;20021;-67
2022/03/17 01:44:31;;;;;;;42.08;28.35;;;;;;;8.97;88.25;101779.53;5003635;28;20476;-67
2022/03/17 01:49:41;;;;;;;42.38;28.90;;;;;;;8.82;89.64;101771.06;5004585;28;20460;-67
2022/03/17 01:52:07;;;;;;;42.22;29.92;;;;;;;8.78;90.29;101768.53;4999466;28;20026;-67
2022/03/17 01:54:34;;;;;;;41.67;28.90;;;;;;;8.71;90.90;101766.94;5002991;28;21519;-67
2022/03/17 01:57:00;;;;;;;43.53;29.92;;;;;;;8.66;90.38;101759.13;5004282;28;20565;-67
2022/03/17 01:59:31;;;;;;;46.10;31.15;;;;;;;8.63;91.46;101753.91;4987999;28;20029;-68
2022/03/17 02:01:57;;;;;;;44.47;31.40;;;;;;;8.60;91.72;101757.47;4984871;28;20104;-67
2022/03/17 02:04:24;;;;;;;43.45;30.50;;;;;;;8.58;92.08;101767.22;5003587;28;20515;-68
2022/03/17 02:06:50;;;;;;;43.83;31.02;;;;;;;8.56;92.16;101761.09;5003733;28;20068;-67
2022/03/17 02:09:18;;;;;;;43.28;29.70;;;;;;;8.59;92.59;101763.66;4986951;28;20095;-67
2022/03/17 02:14:28;;;;;;;46.28;32.10;;;;;;;8.61;92.84;101758.34;5002143;28;20085;-68
2022/03/17 02:16:53;;;;;;;42.42;31.02;;;;;;;8.61;92.83;101758.34;4986318;28;20600;-68
2022/03/17 02:19:22;;;;;;;45.70;30.30;;;;;;;8.62;93.10;101762.72;4985537;28;20497;-67
2022/03/17 02:21:49;;;;;;;45.20;31.02;;;;;;;8.63;93.62;101762.72;5004054;28;20022;-67
2022/03/17 02:27:01;;;;;;;44.83;32.17;;;;;;;8.65;93.21;101752.97;4990343;28;20133;-67
2022/03/17 02:29:27;;;;;;;47.55;31.65;;;;;;;8.67;93.34;101755.59;4984378;28;21371;-67
2022/03/17 02:31:53;;;;;;;43.47;30.83;;;;;;;8.68;93.71;101741.47;4986507;28;20040;-68
2022/03/17 02:34:19;;;;;;;42.45;30.85;;;;;;;8.69;93.71;101743.22;4986788;28;20033;-67
2022/03/17 02:36:47;;;;;;;46.10;33.42;;;;;;;8.70;93.65;101744.94;4999259;28;20165;-67
2022/03/17 02:39:13;;;;;;;47.13;32.95;;;;;;;8.71;93.51;101740.53;5002085;28;20299;-68
2022/03/17 02:41:39;;;;;;;44.67;33.08;;;;;;;8.73;93.13;101741.38;5001662;28;20269;-68
2022/03/17 02:44:05;;;;;;;44.70;31.67;;;;;;;8.73;93.58;101747.53;4984275;28;20656;-68
2022/03/17 02:46:31;;;;;;;46.97;32.67;;;;;;;8.74;93.80;101751.00;4983919;28;20033;-68
2022/03/17 02:48:56;;;;;;;49.33;33.60;;;;;;;8.75;93.52;101748.34;5002644;28;20061;-68
2022/03/17 02:51:22;;;;;;;46.17;32.50;;;;;;;8.76;94.00;101750.09;4983239;28;20045;-68
2022/03/17 02:53:48;;;;;;;48.00;34.13;;;;;;;8.77;94.04;101750.97;5001531;28;20045;-68
2022/03/17 02:56:13;;;;;;;46.63;33.80;;;;;;;8.77;93.92;101749.16;5000464;28;20033;-67
2022/03/17 02:58:39;;;;;;;49.22;34.30;;;;;;;8.77;94.13;101757.09;5001616;28;20906;-68
2022/03/17 03:01:05;;;;;;;51.85;35.30;;;;;;;8.77;94.21;101756.25;5001818;28;20040;-69
2022/03/17 03:03:30;;;;;;;52.55;35.15;;;;;;;8.74;94.55;101756.28;5002674;28;20095;-68
2022/03/17 03:05:56;;;;;;;51.35;35.42;;;;;;;8.71;94.43;101766.94;4970285;28;20041;-67
2022/03/17 03:08:21;;;;;;;55.88;38.00;;;;;;;8.65;95.39;101768.81;4982480;28;20045;-68
2022/03/17 03:10:47;;;;;;;58.63;38.35;;;;;;;8.59;95.83;101778.63;4968272;28;20776;-67
2022/03/17 03:13:14;;;;;;;63.20;38.40;;;;;;;8.51;96.60;101782.31;4984874;28;20100;-67
2022/03/17 03:15:39;;;;;;;64.55;41.03;;;;;;;8.45;96.83;101779.78;4984140;28;20068;-67
2022/03/17 03:18:05;;;;;;;63.88;41.67;;;;;;;8.37;97.87;101785.22;5001694;28;20092;-67
2022/03/17 03:20:31;;;;;;;67.45;42.40;;;;;;;8.31;98.04;101784.47;4983814;28;20545;-67
2022/03/17 03:22:57;;;;;;;69.10;43.95;;;;;;;8.26;99.06;101788.09;5001506;28;20026;-68
2022/03/17 03:25:22;;;;;;;72.80;44.25;;;;;;;8.22;99.07;101791.66;4987902;28;20440;-69
2022/03/17 03:27:48;;;;;;;83.75;46.65;;;;;;;8.18;99.95;101795.28;5002247;28;20587;-68
2022/03/17 03:30:14;;;;;;;78.00;46.20;;;;;;;8.14;100.00;101793.59;4998535;28;20246;-68
2022/03/17 03:32:42;;;;;;;88.95;50.10;;;;;;;8.10;100.00;101792.78;4986114;28;20044;-68
2022/03/17 03:37:53;;;;;;;91.40;50.88;;;;;;;8.02;100.00;101795.56;5001666;28;21400;-68
2022/03/17 03:40:19;;;;;;;97.70;50.95;;;;;;;8.00;100.00;101794.75;4988374;28;20071;-68
2022/03/17 03:42:44;;;;;;;102.80;53.50;;;;;;;7.98;100.00;101793.91;4985745;28;20715;-68
2022/03/17 03:45:10;;;;;;;96.55;51.45;;;;;;;7.96;100.00;101806.25;5003346;28;20074;-68
2022/03/17 03:47:35;;;;;;;98.45;49.63;;;;;;;7.96;100.00;101805.38;5003402;28;20496;-68
2022/03/17 03:50:02;;;;;;;104.18;51.40;;;;;;;7.96;100.00;101806.25;5005126;28;20448;-68
2022/03/17 03:52:27;;;;;;;102.05;51.85;;;;;;;7.94;100.00;101810.69;5005510;28;20042;-68
2022/03/17 03:54:53;;;;;;;107.10;52.53;;;;;;;7.94;100.00;101813.31;5004091;28;20091;-68
2022/03/17 03:57:19;;;;;;;111.38;51.95;;;;;;;7.93;100.00;101824.78;5005824;28;20061;-68
2022/03/17 03:59:44;;;;;;;104.90;52.25;;;;;;;7.94;100.00;101834.41;4988440;28;20456;-68
2022/03/17 04:02:10;;;;;;;98.05;49.05;;;;;;;7.96;100.00;101837.88;4971869;28;20048;-68
2022/03/17 04:04:40;;;;;;;100.07;49.15;;;;;;;7.98;100.00;101851.94;5005403;28;20537;-68
2022/03/17 04:07:08;;;;;;;88.88;42.42;;;;;;;8.05;100.00;101863.22;5002970;28;20037;-66
2022/03/17 04:09:35;;;;;;;52.28;28.98;;;;;;;8.05;100.00;101891.38;5003548;28;20127;-67
2022/03/17 04:12:03;;;;;;;31.30;17.35;;;;;;;7.84;100.00;101904.91;5005774;28;20157;-67
2022/03/17 04:14:30;;;;;;;25.52;14.73;;;;;;;7.59;100.00;101904.44;5006613;28;20040;-68
2022/03/17 04:16:56;;;;;;;24.80;15.60;;;;;;;7.41;100.00;101909.09;4988795;28;20407;-68
2022/03/17 04:19:21;;;;;;;32.40;16.80;;;;;;;7.28;100.00;101915.44;5007526;28;20025;-68
2022/03/17 04:21:48;;;;;;;31.42;17.67;;;;;;;7.18;100.00;101922.59;5005823;28;20022;-68
2022/03/17 04:24:14;;;;;;;33.78;16.95;;;;;;;7.09;100.00;101928.88;5003742;28;20052;-68
2022/03/17 04:26:40;;;;;;;33.42;17.73;;;;;;;7.02;100.00;101927.19;5006575;28;20758;-68
2022/03/17 04:29:06;;;;;;;32.45;16.60;;;;;;;6.95;100.00;101925.53;5004384;28;20481;-68
2022/03/17 04:31:33;;;;;;;29.85;16.80;;;;;;;6.88;100.00;101941.44;5006879;28;20326;-67
2022/03/17 04:33:59;;;;;;;34.33;17.77;;;;;;;6.82;100.00;101949.41;5006452;28;20092;-68
2022/03/17 04:36:25;;;;;;;28.77;16.23;;;;;;;6.77;100.00;101959.09;5004562;28;20034;-68
2022/03/17 04:38:51;;;;;;;28.27;16.02;;;;;;;6.71;100.00;101959.19;5004864;28;20369;-67
2022/03/17 04:41:17;;;;;;;26.70;14.95;;;;;;;6.67;100.00;101976.75;5005195;28;20030;-68
2022/03/17 04:43:43;;;;;;;22.98;14.32;;;;;;;6.61;100.00;101972.44;4989487;28;20065;-68
2022/03/17 04:46:08;;;;;;;26.20;14.05;;;;;;;6.58;100.00;101979.50;5005456;28;20179;-68
2022/03/17 04:48:34;;;;;;;27.30;14.85;;;;;;;6.52;100.00;101976.03;4972429;28;20041;-68
2022/03/17 04:51:00;;;;;;;28.30;14.80;;;;;;;6.49;100.00;101976.06;5006732;28;20056;-68
2022/03/17 04:53:30;;;;;;;34.55;16.33;;;;;;;6.48;100.00;101989.25;4986494;28;20876;-68
2022/03/17 04:56:05;;;;;;;37.90;17.15;;;;;;;6.43;100.00;102002.41;4986305;28;20033;-68
2022/03/17 04:58:32;;;;;;;35.08;17.42;;;;;;;6.41;100.00;101996.31;5006380;28;20025;-68
2022/03/17 05:00:59;;;;;;;41.75;19.05;;;;;;;6.40;100.00;102002.47;5004176;28;20026;-69
2022/03/17 05:03:25;;;;;;;38.65;19.48;;;;;;;6.37;100.00;102008.63;4987661;28;20033;-69
2022/03/17 05:05:51;;;;;;;43.65;19.80;;;;;;;6.38;100.00;102025.28;4988625;28;20037;-69
2022/03/17 05:08:17;;;;;;;41.78;19.33;;;;;;;6.36;100.00;102035.81;4987004;28;20549;-69
2022/03/17 05:10:44;;;;;;;33.95;18.13;;;;;;;6.33;100.00;102033.19;5006217;28;20188;-69
2022/03/17 05:13:10;;;;;;;35.88;15.80;;;;;;;6.31;100.00;102045.50;5006184;28;20653;-69
2022/03/17 05:15:36;;;;;;;42.60;16.40;;;;;;;6.29;100.00;102065.69;5006867;28;20392;-68
2022/03/17 05:18:03;;;;;;;30.85;13.93;;;;;;;6.28;100.00;102085.00;5004994;28;20013;-69
2022/03/17 05:20:29;;;;;;;35.03;13.35;;;;;;;6.25;100.00;102078.00;5004380;28;20595;-69
2022/03/17 05:22:54;;;;;;;32.40;12.75;;;;;;;6.24;100.00;102085.88;4969449;28;20029;-68
2022/03/17 05:25:20;;;;;;;28.90;9.32;;;;;;;6.21;100.00;102080.66;5003790;28;20470;-68
2022/03/17 05:27:48;;;;;;;23.08;8.77;;;;;;;6.20;100.00;102094.66;5002556;28;20128;-69
2022/03/17 05:30:15;;;;;;;26.17;7.53;;;;;;;6.17;100.00;102098.22;4991668;28;20280;-69
2022/03/17 05:32:45;;;;;;;30.90;7.60;;;;;;;6.15;100.00;102107.00;5001075;28;20439;-69
2022/03/17 05:35:12;;;;;;;20.38;7.25;;;;;;;6.11;100.00;102107.00;4986613;28;21212;-69
2022/03/17 05:37:39;;;;;;;22.52;6.85;;;;;;;6.09;100.00;102114.03;5003217;28;20128;-69
2022/03/17 05:40:09;;;;;;;26.52;7.15;;;;;;;6.07;100.00;102115.81;4984925;28;20120;-69
2022/03/17 05:42:35;;;;;;;19.70;6.65;;;;;;;6.05;100.00;102122.81;4991203;28;20644;-69
2022/03/17 05:45:02;;;;;;;28.35;7.10;;;;;;;6.04;100.00;102133.38;5003019;28;20056;-68
2022/03/17 05:47:39;;;;;;;21.50;6.75;;;;;;;6.03;100.00;102140.38;5002742;28;20036;-68
2022/03/17 05:52:52;;;;;;;26.80;7.53;;;;;;;6.03;100.00;102156.16;4979957;28;20046;-68
2022/03/17 05:55:20;;;;;;;21.75;6.78;;;;;;;6.02;100.00;102170.19;5004908;28;20039;-69
2022/03/17 05:57:48;;;;;;;16.73;5.65;;;;;;;6.03;100.00;102176.28;4988336;28;20106;-68
2022/03/17 06:00:23;;;;;;;22.50;5.20;;;;;;;6.01;100.00;102173.66;4990920;28;20060;-68
2022/03/17 06:02:49;;;;;;;14.95;4.00;;;;;;;5.99;100.00;102180.66;5004957;28;20144;-67
2022/03/17 06:05:14;;;;;;;14.45;4.10;;;;;;;5.97;100.00;102195.56;5005357;28;20022;-68
2022/03/17 06:07:48;;;;;;;14.68;4.10;;;;;;;5.97;100.00;102200.84;5004295;28;20053;-68
2022/03/17 06:10:17;;;;;;;13.57;3.05;;;;;;;5.95;100.00;102205.22;5000683;28;20385;-68
2022/03/17 06:12:44;;;;;;;14.77;3.22;;;;;;;5.94;100.00;102214.00;4982818;28;20516;-68
2022/03/17 06:15:09;;;;;;;20.52;3.33;;;;;;;5.91;100.00;102225.41;5005427;28;20469;-69
2022/03/17 06:17:39;;;;;;;14.40;3.08;;;;;;;5.90;100.00;102225.41;5004759;28;20658;-68
2022/03/17 06:20:09;;;;;;;17.05;3.03;;;;;;;5.89;100.00;102232.41;4987400;28;20033;-69
2022/03/17 06:22:37;;;;;;;18.00;3.40;;;;;;;5.90;100.00;102235.91;4958347;28;20571;-68
2022/03/17 06:25:03;;;;;;;15.88;2.90;;;;;;;5.89;100.00;102236.78;4990237;28;20098;-68
2022/03/17 06:27:29;;;;;;;21.35;6.07;;;;;;;5.89;100.00;102247.31;5002125;28;20225;-68
2022/03/17 06:29:54;;;;;;;18.95;3.75;;;;;;;5.89;100.00;102257.84;4989428;28;20447;-68
2022/03/17 06:32:20;;;;;;;11.90;3.43;;;;;;;5.88;100.00;102262.19;4989124;28;20357;-68
2022/03/17 06:34:45;;;;;;;20.45;3.90;;;;;;;5.89;100.00;102273.59;4986388;28;20033;-68
2022/03/17 06:37:11;;;;;;;20.88;3.53;;;;;;;5.88;100.00;102271.84;5002735;28;20688;-69
2022/03/17 06:39:36;;;;;;;21.13;3.88;;;;;;;5.88;100.00;102285.84;4986046;28;20037;-68
2022/03/17 06:42:02;;;;;;;17.27;4.28;;;;;;;5.89;100.00;102284.13;5001724;28;20732;-68
2022/03/17 06:44:28;;;;;;;21.33;3.83;;;;;;;5.91;100.00;102296.38;5001692;28;20025;-69
2022/03/17 06:46:53;;;;;;;11.50;3.63;;;;;;;5.93;100.00;102312.13;5003059;28;20052;-68
2022/03/17 06:49:19;;;;;;;18.80;3.88;;;;;;;5.93;100.00;102312.13;5003291;28;20582;-68
2022/03/17 06:51:44;;;;;;;17.38;2.75;;;;;;;5.93;100.00;102317.38;5002920;28;20698;-69
2022/03/17 06:54:10;;;;;;;22.33;3.92;;;;;;;5.93;100.00;102327.91;5002974;28;20041;-69
2022/03/17 06:56:35;;;;;;;19.85;3.00;;;;;;;5.90;100.00;102331.44;5004837;28;20051;-68
2022/03/17 06:59:01;;;;;;;17.30;2.97;;;;;;;5.91;100.00;102335.81;5004439;28;20049;-67
2022/03/17 07:01:26;;;;;;;19.70;2.47;;;;;;;5.89;100.00;102352.47;5004090;28;20033;-68
2022/03/17 07:03:52;;;;;;;16.80;3.17;;;;;;;5.88;100.00;102356.84;5001632;28;20566;-68
2022/03/17 07:06:19;;;;;;;14.18;2.40;;;;;;;5.87;100.00;102375.25;4999845;28;20107;-69
2022/03/17 07:08:45;;;;;;;16.55;2.40;;;;;;;5.88;100.00;102387.53;5001020;28;20092;-68
2022/03/17 07:11:10;;;;;;;18.30;2.67;;;;;;;5.87;100.00;102391.03;5001304;28;21602;-68
2022/03/17 07:13:36;;;;;;;14.30;2.20;;;;;;;5.85;100.00;102396.28;4984594;28;20064;-69
2022/03/17 07:16:02;;;;;;;15.23;2.88;;;;;;;5.84;100.00;102407.69;5002069;28;20346;-68
2022/03/17 07:18:28;;;;;;;16.48;2.42;;;;;;;5.84;100.00;102407.69;5003928;28;20035;-70
2022/03/17 07:20:57;;;;;;;19.67;2.92;;;;;;;5.83;100.00;102419.06;4986539;28;23393;-68
2022/03/17 07:23:23;;;;;;;13.95;2.50;;;;;;;5.83;100.00;102417.31;5002830;28;20164;-68
2022/03/17 07:25:49;;;;;;;15.48;3.03;;;;;;;5.83;100.00;102433.06;5002640;28;20124;-68
2022/03/17 07:28:15;;;;;;;20.02;3.13;;;;;;;5.82;100.00;102428.69;5002177;28;20404;-68
2022/03/17 07:30:42;;;;;;;26.98;3.78;;;;;;;5.81;100.00;102440.09;5002217;28;20163;-73
2022/03/17 07:33:07;;;;;;;20.95;2.83;;;;;;;5.82;100.00;102447.09;4984030;28;20026;-70
2022/03/17 07:35:33;;;;;;;16.48;3.03;;;;;;;5.83;100.00;102440.09;5003734;28;20397;-68
2022/03/17 07:37:59;;;;;;;20.10;3.15;;;;;;;5.83;100.00;102469.88;5000135;28;20125;-69
2022/03/17 07:40:26;;;;;;;22.83;3.42;;;;;;;5.84;100.00;102474.25;4983542;28;20241;-70
2022/03/17 07:42:51;;;;;;;17.48;3.53;;;;;;;5.83;100.00;102480.38;5001929;28;20645;-68
2022/03/17 07:45:17;;;;;;;23.98;2.80;;;;;;;5.84;100.00;102487.41;5002853;28;20369;-69
2022/03/17 07:47:47;;;;;;;14.82;2.65;;;;;;;5.83;100.00;102485.66;5003353;28;20033;-69
2022/03/17 07:50:13;;;;;;;19.48;2.20;;;;;;;5.82;100.00;102502.28;4983795;28;20116;-68
2022/03/17 07:52:39;;;;;;;16.02;2.10;;;;;;;5.83;100.00;102501.41;4997792;28;20604;-69
2022/03/17 07:55:05;;;;;;;20.50;2.67;;;;;;;5.84;100.00;102503.16;4977084;28;20294;-68
2022/03/17 07:57:31;;;;;;;18.30;2.85;;;;;;;5.84;100.00;102508.41;4994363;28;20034;-68
2022/03/17 07:59:57;;;;;;;18.00;2.70;;;;;;;5.84;100.00;102511.06;4998099;28;20064;-69
2022/03/17 08:02:23;;;;;;;21.33;2.83;;;;;;;5.83;100.00;102522.44;4983971;28;20043;-69
2022/03/17 08:04:50;;;;;;;20.98;3.05;;;;;;;5.84;100.00;102534.72;4996473;28;20033;-69
2022/03/17 08:07:15;;;;;;;23.15;2.92;;;;;;;5.83;100.00;102535.59;4997383;28;20438;-69
2022/03/17 08:09:41;;;;;;;19.25;2.92;;;;;;;5.84;99.55;102539.97;4980439;28;20056;-69
2022/03/17 08:12:07;;;;;;;18.02;2.85;;;;;;;5.85;99.91;102540.84;4997804;28;20049;-69
2022/03/17 08:14:32;;;;;;;14.77;2.55;;;;;;;5.85;100.00;102544.34;4998272;28;20096;-69
2022/03/17 08:16:58;;;;;;;21.98;3.45;;;;;;;5.87;100.00;102554.00;4997008;28;20029;-68
2022/03/17 08:19:24;;;;;;;20.30;2.97;;;;;;;5.90;100.00;102554.00;4998127;28;20439;-69
2022/03/17 08:21:49;;;;;;;22.23;4.05;;;;;;;5.96;100.00;102556.66;4997308;28;20516;-69
2022/03/17 08:24:15;;;;;;;19.33;2.90;;;;;;;6.02;100.00;102559.31;4995553;28;21825;-69
2022/03/17 08:26:40;;;;;;;11.70;2.30;;;;;;;6.08;98.72;102556.69;4997037;28;20144;-69
2022/03/17 08:29:06;;;;;;;10.57;2.53;;;;;;;6.14;97.43;102568.97;4993407;28;20037;-70
2022/03/17 08:31:32;;;;;;;14.57;2.28;;;;;;;6.19;97.75;102568.97;4978415;28;20034;-69
2022/03/17 08:33:57;;;;;;;20.05;2.65;;;;;;;6.18;97.46;102583.88;5000407;28;20362;-69
2022/03/17 08:36:24;;;;;;;13.75;2.63;;;;;;;6.18;97.71;102606.66;5002835;28;20458;-69
2022/03/17 08:38:53;;;;;;;12.00;2.33;;;;;;;6.17;97.66;102591.75;5000475;28;20559;-69
2022/03/17 08:41:19;;;;;;;17.92;2.83;;;;;;;6.15;97.87;102602.28;5005526;28;21111;-69
2022/03/17 08:43:45;;;;;;;24.77;3.88;;;;;;;6.19;98.13;102609.31;5005457;28;20037;-69
2022/03/17 08:51:38;;;;;;;19.17;2.85;;;;;;;6.47;99.12;102624.22;5003823;28;20377;-69
2022/03/17 08:54:04;;;;;;;15.48;2.50;;;;;;;6.58;98.73;102630.38;5002734;28;20493;-70
2022/03/17 08:56:34;;;;;;;16.90;2.53;;;;;;;6.66;97.85;102625.97;4986175;28;20120;-69
2022/03/17 08:59:00;;;;;;;9.20;2.20;;;;;;;6.77;97.52;102638.28;4988222;28;20554;-69
2022/03/17 09:01:25;;;;;;;13.70;2.47;;;;;;;6.87;96.92;102637.38;5001715;28;20512;-69
2022/03/17 09:03:52;;;;;;;12.20;2.60;;;;;;;6.96;96.98;102644.38;5001622;28;20034;-69
2022/03/17 09:06:18;;;;;;;11.68;2.20;;;;;;;6.99;95.86;102641.75;4986609;28;20079;-69
2022/03/17 09:08:44;;;;;;;13.85;2.13;;;;;;;7.00;95.43;102655.78;4988570;28;20038;-69
2022/03/17 09:11:13;;;;;;;12.07;2.10;;;;;;;7.01;95.37;102663.69;4985348;28;20171;-69
2022/03/17 09:13:39;;;;;;;15.73;2.60;;;;;;;7.05;95.43;102665.47;5005153;28;20045;-69
2022/03/17 09:16:06;;;;;;;13.77;2.58;;;;;;;7.13;94.81;102672.47;4985170;28;20060;-68
2022/03/17 09:18:32;;;;;;;13.73;2.63;;;;;;;7.17;94.59;102679.47;4997994;28;20036;-69
2022/03/17 09:20:59;;;;;;;16.08;2.92;;;;;;;7.20;94.80;102679.47;4990554;28;20642;-68
2022/03/17 09:23:25;;;;;;;12.10;2.08;;;;;;;7.26;94.74;102690.00;4987619;28;20037;-69
2022/03/17 09:25:50;;;;;;;11.27;2.50;;;;;;;7.36;94.88;102687.34;4995724;28;21063;-69
2022/03/17 09:28:16;;;;;;;15.18;2.42;;;;;;;7.39;94.23;102701.38;4998655;28;20034;-69
2022/03/17 09:30:42;;;;;;;15.05;2.80;;;;;;;7.43;94.11;102702.25;5003514;28;20044;-68
2022/03/17 09:33:07;;;;;;;15.27;2.80;;;;;;;7.41;93.50;102704.88;4985943;28;20061;-68
2022/03/17 09:35:36;;;;;;;13.85;2.42;;;;;;;7.34;91.61;102706.69;5003430;28;20030;-69
2022/03/17 09:38:03;;;;;;;13.27;2.05;;;;;;;7.30;91.59;102711.97;4985386;28;20030;-69
2022/03/17 09:40:29;;;;;;;14.95;2.50;;;;;;;7.28;91.85;102711.94;5003015;28;20108;-68
2022/03/17 09:43:18;;;;;;;16.10;2.50;;;;;;;7.34;92.32;102730.38;5002889;28;20499;-68
2022/03/17 09:45:42;;;;;;;15.93;2.53;;;;;;;7.45;92.72;102733.00;5003641;28;20041;-69
2022/03/17 09:48:09;;;;;;;17.02;2.90;;;;;;;7.58;92.41;102735.63;5002487;28;20029;-69
2022/03/17 09:50:35;;;;;;;21.73;2.35;;;;;;;7.70;91.75;102743.50;5003277;28;20038;-69
2022/03/17 09:53:01;;;;;;;15.60;2.90;;;;;;;7.75;91.79;102744.34;4999965;28;20493;-69
2022/03/17 09:55:27;;;;;;;16.45;2.58;;;;;;;7.74;90.85;102739.94;4968833;28;20506;-70
2022/03/17 09:57:53;;;;;;;14.93;2.28;;;;;;;7.71;89.54;102757.53;4972721;28;20516;-69
2022/03/17 10:00:18;;;;;;;14.70;2.30;;;;;;;7.73;89.28;102763.69;4984934;28;20025;-68
2022/03/17 10:02:44;;;;;;;11.80;2.20;;;;;;;7.72;88.88;102760.19;5002697;28;20121;-69
2022/03/17 10:05:11;;;;;;;16.58;3.22;;;;;;;7.71;88.83;102782.16;5002832;28;20410;-67
2022/03/17 10:07:37;;;;;;;10.52;2.30;;;;;;;7.72;87.54;102783.91;5001538;28;20044;-68
2022/03/17 10:10:03;;;;;;;12.82;2.30;;;;;;;7.76;87.51;102779.50;5001822;28;20046;-68
2022/03/17 10:12:32;;;;;;;12.60;2.03;;;;;;;7.79;87.18;102791.81;5002022;28;20061;-68
2022/03/17 10:14:58;;;;;;;11.20;2.45;;;;;;;7.83;87.84;102791.78;5000471;28;20033;-68
2022/03/17 10:17:34;;;;;;;12.30;2.17;;;;;;;7.87;87.17;102790.91;4989930;28;20032;-67
2022/03/17 10:20:14;;;;;;;15.35;2.38;;;;;;;7.92;86.78;102822.53;4984267;28;20108;-68
2022/03/17 10:22:48;;;;;;;13.38;2.75;;;;;;;7.92;85.89;102819.91;4982131;28;20029;-69
2022/03/17 10:25:17;;;;;;;17.92;2.65;;;;;;;7.87;85.20;102819.91;5001785;28;20025;-68
2022/03/17 10:27:49;;;;;;;14.30;2.20;;;;;;;7.90;85.76;102829.56;4999608;28;20025;-68
2022/03/17 10:30:21;;;;;;;14.63;2.35;;;;;;;7.96;86.13;102831.31;4984175;28;20070;-68
2022/03/17 10:32:58;;;;;;;20.30;2.92;;;;;;;8.05;86.40;102841.84;5001020;28;20045;-68
2022/03/17 10:35:25;;;;;;;19.13;2.67;;;;;;;8.11;85.58;102848.84;4999715;28;20052;-68
2022/03/17 10:37:51;;;;;;;16.65;3.55;;;;;;;8.11;85.41;102849.75;5001751;28;20527;-72
2022/03/17 10:40:17;;;;;;;15.85;3.30;;;;;;;8.14;86.22;102862.94;4985034;28;20029;-73
2022/03/17 10:42:42;;;;;;;14.55;2.72;;;;;;;8.19;86.39;102877.84;4990014;28;20175;-73
2022/03/17 10:45:08;;;;;;;13.43;2.90;;;;;;;8.17;85.71;102880.50;5002450;28;20135;-72
2022/03/17 10:47:36;;;;;;;18.23;2.60;;;;;;;8.11;84.02;102889.31;5002716;28;20022;-72
2022/03/17 10:50:08;;;;;;;17.83;2.92;;;;;;;8.11;84.40;102891.94;4991422;28;20060;-72
2022/03/17 10:52:55;;;;;;;11.35;2.55;;;;;;;8.17;83.79;102903.38;5001794;28;20489;-72
2022/03/17 10:55:25;;;;;;;16.50;3.17;;;;;;;8.11;83.54;102907.78;5001100;28;20144;-73
2022/03/17 10:57:53;;;;;;;20.25;3.17;;;;;;;8.06;84.35;102900.78;4999687;28;20029;-72
2022/03/17 11:00:26;;;;;;;13.90;2.72;;;;;;;8.05;83.90;102913.06;5001981;28;20091;-72
2022/03/17 11:02:57;;;;;;;14.82;2.75;;;;;;;8.04;83.77;102931.53;4999560;28;20065;-72
2022/03/17 11:05:24;;;;;;;16.13;2.67;;;;;;;8.02;83.86;102935.06;4983501;28;20135;-72
2022/03/17 11:07:51;;;;;;;12.68;3.15;;;;;;;7.98;83.51;102938.59;4967949;28;20478;-72
2022/03/17 11:10:19;;;;;;;27.13;3.30;;;;;;;7.96;83.71;102950.03;5000903;28;20092;-74
2022/03/17 11:12:50;;;;;;;14.85;2.88;;;;;;;8.04;84.65;102952.63;4998058;28;20125;-73
2022/03/17 11:15:38;;;;;;;19.23;3.00;;;;;;;8.15;82.06;102956.16;5001450;28;20045;-73
2022/03/17 11:18:06;;;;;;;11.45;2.22;;;;;;;8.16;81.64;102955.25;4988839;28;20059;-72
2022/03/17 11:20:33;;;;;;;19.67;3.53;;;;;;;8.14;83.12;102959.66;4982911;28;20112;-72
2022/03/17 11:23:24;;;;;;;15.02;3.28;;;;;;;8.12;83.28;102969.34;4981128;28;20037;-74
2022/03/17 11:25:57;;;;;;;16.25;2.28;;;;;;;8.16;82.68;102973.72;5001892;28;20033;-73
2022/03/17 11:28:33;;;;;;;18.85;2.95;;;;;;;8.23;82.96;102975.47;5002691;28;20056;-73
2022/03/17 11:31:04;;;;;;;19.17;3.15;;;;;;;8.27;83.43;102977.25;4998089;28;20087;-73
2022/03/17 11:33:35;;;;;;;18.23;3.17;;;;;;;8.26;83.29;102983.41;4998762;28;20567;-73
2022/03/17 11:36:13;;;;;;;17.52;3.60;;;;;;;8.26;83.23;102988.69;5003626;28;20061;-72